Nearby METAR Reports

 

KPRB - Paso Robles, California, USA
Distance from station: SW 1mi, 1km
Updated: 07/01/2015 11:53am
Clear
Clear
 Wind from WSW
Wind: WSW 6 mph , 9 km/h
Temperature: 84°F , 29°C
Dew Point: 46°F , 8°C
Humidity: 27%
Barometer: 29.92 inHg , 1013.2 hPa
Clouds: Clear
Visibility: 10 miles , 16 km
2015/07/01 18:53 KPRB 011853Z AUTO 24005KT 10SM CLR 29/08 A2992 RMK AO2 SLP124 T02940083 TSNO
KSBP - San Luis Obispo, California, USA
Distance from station: S 30mi, 49km
Updated: 07/01/2015 11:56am
Clear
Clear
 Wind from NW
Wind: NW 6 mph , 9 km/h
Temperature: 73°F , 23°C
Dew Point: 55°F , 13°C
Humidity: 53%
Barometer: 29.93 inHg , 1013.5 hPa
Clouds: Clear
Visibility: 10 miles , 16 km
2015/07/01 18:56 KSBP 011856Z 31005KT 10SM CLR 23/13 A2993 RMK AO2 SLP132 T02280128
 
KSMX - Santa Maria, California, USA
Distance from station: S 54mi, 87km
Updated: 07/01/2015 11:51am
Mostly cloudy
Mostly cloudy
 Wind from WNW
Wind: WNW 3 mph , 6 km/h
Temperature: 72°F , 22°C
Dew Point: 57°F , 14°C
Humidity: 61%
Barometer: 29.93 inHg , 1013.5 hPa
Clouds: Mostly cloudy
Visibility: 10 miles , 16 km
Cloud details: Mostly cloudy 15000 ft
Mostly cloudy 23000 ft
2015/07/01 18:51 KSMX 011851Z 30003KT 10SM BKN150 BKN230 22/14 A2993 RMK AO2 SLP137 T02170144
KNLC - Lemoore Nas/Reev, California, USA
Distance from station: NE 58mi, 94km
Updated: 07/01/2015 11:56am
Overcast
Overcast
 Wind from E
Wind: E 10 mph , 17 km/h
Temperature: 93°F , 34°C
Dew Point: 61°F , 16°C
Humidity: 34%
Barometer: 29.90 inHg , 1012.5 hPa
Clouds: Overcast
Visibility: 10 miles , 16 km
Cloud details: Few Clouds 6000 ft
Partly cloudy 9500 ft
Mostly cloudy 11000 ft
Overcast 18000 ft
2015/07/01 18:56 KNLC 011856Z 10009KT 10SM FEW060 SCT095CB BKN110 OVC180 34/16 A2990 RMK AO2 SLP122 OCNL LTGICCC DSNT SW CB DSNT SW MOV UNKN RH/32 T03390156
 
KVBG - Vandenberg Afb, California, USA
Distance from station: S 65mi, 105km
Updated: 07/01/2015 11:55am
Overcast
Overcast
 Wind from W
Wind: W 9 mph , 15 km/h
Temperature: 66°F , 19°C
Dew Point: 57°F , 14°C
Humidity: 73%
Barometer: 29.94 inHg , 1013.9 hPa
Clouds: Overcast
Visibility: 10 miles , 16 km
Cloud details: Few Clouds 300 ft
Partly cloudy 10000 ft
Mostly cloudy 17000 ft
Mostly cloudy 23000 ft
Overcast 30000 ft
2015/07/01 18:55 KVBG 011855Z 28008KT 10SM FEW003 SCT100 BKN170 BKN230 OVC300 19/14 A2994 RMK AO2A SLP139 T01900140
KLPC - Lompoc, California, USA
Distance from station: S 70mi, 113km
Updated: 07/01/2015 12:35pm
Clear
Clear
 Wind from W
Wind: W 9 mph , 15 km/h
Temperature: 72°F , 22°C
Dew Point: 57°F , 14°C
Humidity: 61%
Barometer: 29.94 inHg , 1013.9 hPa
Clouds: Clear
Visibility: 10 miles , 16 km
2015/07/01 19:35 KLPC 011935Z AUTO 26008KT 10SM CLR 22/14 A2994 RMK AO1
 
KHJO - Hanford, California, USA
Distance from station: NE 72mi, 116km
Updated: 07/01/2015 11:53am
Clear
Clear
 Wind from NNE
Wind: NNE 3 mph , 6 km/h
Temperature: 90°F , 32°C
Heat Index: 91°F , 33°C
Dew Point: 63°F , 17°C
Humidity: 41%
Barometer: 29.89 inHg , 1012.2 hPa
Clouds: Clear
Visibility: 10 miles , 16 km
2015/07/01 18:53 KHJO 011853Z AUTO 02003KT 10SM CLR 32/17 A2989 RMK AO2 SLP120 T03220167